Time;durP1;ratioP1;P1;durP2;ratioP2;P2;SDS_P1;SDS_P2;PMS_P1;PMS_P2;Temp;Humidity;BMP_temperature;BMP_pressure;BME280_temperature;BME280_humidity;BME280_pressure;Samples;Min_cycle;Max_cycle;Signal;HPM_P1;HPM_P2
2023/01/03 00:00:26;;;;;;;9.23;6.57;;;6.80;99.90;;;;;;5092330;28;20416;-63
2023/01/03 00:02:53;;;;;;;10.90;6.00;;;6.80;99.90;;;;;;5091605;28;20410;-62
2023/01/03 00:05:19;;;;;;;9.27;6.27;;;6.70;99.90;;;;;;5091895;28;20498;-63
2023/01/03 00:07:46;;;;;;;9.68;5.70;;;6.70;99.90;;;;;;5091183;28;20418;-60
2023/01/03 00:10:13;;;;;;;8.57;6.30;;;6.70;99.90;;;;;;5091160;28;20418;-62
2023/01/03 00:12:39;;;;;;;9.10;6.72;;;6.70;99.90;;;;;;5091422;28;20414;-62
2023/01/03 00:15:07;;;;;;;12.85;6.30;;;6.70;99.90;;;;;;5091420;28;20509;-62
2023/01/03 00:17:35;;;;;;;13.20;6.50;;;6.80;99.90;;;;;;5091279;28;20409;-61
2023/01/03 00:20:02;;;;;;;10.32;6.35;;;6.80;99.90;;;;;;5090846;28;20912;-62
2023/01/03 00:22:31;;;;;;;10.77;6.07;;;6.80;99.90;;;;;;5091082;28;20417;-62
2023/01/03 00:24:58;;;;;;;12.05;6.53;;;6.90;99.90;;;;;;5091425;28;20414;-62
2023/01/03 00:27:24;;;;;;;10.57;5.78;;;6.90;99.90;;;;;;5095536;28;20416;-62
2023/01/03 00:29:51;;;;;;;8.88;6.30;;;6.90;99.90;;;;;;5096233;28;20436;-62
2023/01/03 00:32:18;;;;;;;9.48;6.15;;;7.00;99.90;;;;;;5096469;28;20431;-62
2023/01/03 00:34:47;;;;;;;9.70;5.50;;;6.90;99.90;;;;;;5096516;28;20480;-62
2023/01/03 00:37:14;;;;;;;7.85;5.50;;;6.90;99.90;;;;;;5096025;28;20417;-62
2023/01/03 00:39:42;;;;;;;7.15;4.90;;;6.90;99.90;;;;;;5095915;28;20422;-63
2023/01/03 00:42:09;;;;;;;6.47;5.60;;;6.80;99.90;;;;;;5095984;28;20496;-62
2023/01/03 00:44:36;;;;;;;11.05;5.80;;;6.80;99.90;;;;;;5098131;28;20413;-63
2023/01/03 00:47:03;;;;;;;6.50;5.00;;;6.80;99.90;;;;;;5099967;28;20406;-62
2023/01/03 00:49:30;;;;;;;6.70;5.00;;;6.70;99.90;;;;;;5102290;28;20420;-62
2023/01/03 00:51:58;;;;;;;8.23;4.95;;;6.70;99.90;;;;;;5102604;28;20420;-63
2023/01/03 00:54:25;;;;;;;7.07;5.07;;;6.60;99.90;;;;;;5095875;28;20499;-63
2023/01/03 00:56:52;;;;;;;6.80;4.65;;;6.60;99.90;;;;;;5095581;28;20426;-61
2023/01/03 00:59:21;;;;;;;8.48;4.80;;;6.50;99.90;;;;;;5095843;28;20409;-63
2023/01/03 01:01:49;;;;;;;8.77;4.78;;;6.50;99.90;;;;;;5095362;28;20890;-63
2023/01/03 01:04:19;;;;;;;8.00;5.38;;;6.50;99.90;;;;;;5095461;28;20416;-62
2023/01/03 01:06:48;;;;;;;9.40;4.93;;;6.40;99.90;;;;;;5095329;28;20413;-62
2023/01/03 01:09:19;;;;;;;11.82;5.38;;;6.40;99.90;;;;;;5095351;28;20414;-63
2023/01/03 01:11:46;;;;;;;9.55;5.30;;;6.30;99.90;;;;;;5096043;28;20409;-63
2023/01/03 01:14:22;;;;;;;9.55;4.90;;;6.30;99.90;;;;;;5095485;28;20406;-62
2023/01/03 01:16:51;;;;;;;9.23;5.00;;;6.30;99.90;;;;;;5095381;28;20432;-63
2023/01/03 01:19:20;;;;;;;5.90;4.70;;;6.20;99.90;;;;;;5095496;28;20509;-63
2023/01/03 01:21:47;;;;;;;9.98;4.70;;;6.20;99.90;;;;;;5095006;28;20930;-63
2023/01/03 01:24:16;;;;;;;10.15;5.63;;;6.20;99.90;;;;;;5095085;28;20409;-62
2023/01/03 01:26:43;;;;;;;7.97;4.50;;;6.10;99.90;;;;;;5094716;28;20917;-62
2023/01/03 01:29:11;;;;;;;8.65;5.30;;;6.10;99.90;;;;;;5095325;28;20413;-63
2023/01/03 01:31:39;;;;;;;9.38;5.20;;;6.10;99.90;;;;;;5094956;28;20901;-63
2023/01/03 01:34:06;;;;;;;8.35;5.10;;;6.10;99.90;;;;;;5095070;28;20446;-64
2023/01/03 01:36:36;;;;;;;7.18;4.95;;;6.00;99.90;;;;;;5094976;28;20426;-63
2023/01/03 01:39:06;;;;;;;6.25;5.03;;;6.00;99.90;;;;;;5094214;28;20774;-63
2023/01/03 01:44:46;;;;;;;8.00;4.50;;;6.00;99.90;;;;;;5095019;28;20451;-63
2023/01/03 01:47:17;;;;;;;10.43;5.10;;;5.90;99.90;;;;;;5094860;28;20406;-62
2023/01/03 01:49:47;;;;;;;8.60;4.75;;;5.80;99.90;;;;;;5094774;28;20428;-62
2023/01/03 01:52:14;;;;;;;9.57;5.10;;;5.80;99.90;;;;;;5094548;28;20886;-63
2023/01/03 01:54:41;;;;;;;11.63;5.40;;;5.80;99.90;;;;;;5094769;28;20418;-62
2023/01/03 01:57:15;;;;;;;8.43;5.30;;;5.70;99.90;;;;;;5094168;28;20909;-61
2023/01/03 01:59:42;;;;;;;11.00;5.83;;;5.70;99.90;;;;;;5095076;28;20414;-63
2023/01/03 02:02:09;;;;;;;10.65;6.00;;;5.60;99.90;;;;;;5094708;28;20463;-62
2023/01/03 02:04:39;;;;;;;9.48;5.90;;;5.60;99.90;;;;;;5094675;28;20410;-64
2023/01/03 02:07:06;;;;;;;8.35;5.75;;;5.60;99.90;;;;;;5094163;28;20414;-63
2023/01/03 02:09:34;;;;;;;9.13;5.03;;;5.50;99.90;;;;;;5094490;28;20446;-63
2023/01/03 02:15:02;;;;;;;8.88;5.40;;;5.50;99.90;;;;;;5049574;28;20390;-61
2023/01/03 02:17:39;;;;;;;9.18;5.60;;;5.50;99.90;;;;;;5093588;28;20422;-62
2023/01/03 02:20:19;;;;;;;10.23;5.97;;;5.40;99.90;;;;;;5094066;28;20410;-63
2023/01/03 02:23:24;;;;;;;10.25;5.90;;;5.40;99.90;;;;;;5094537;28;20414;-63
2023/01/03 02:26:29;;;;;;;9.17;5.57;;;5.40;99.90;;;;;;5093813;28;20688;-63
2023/01/03 02:29:41;;;;;;;10.23;5.30;;;5.40;99.90;;;;;;5093803;28;20409;-64
2023/01/03 02:32:15;;;;;;;9.80;5.30;;;5.30;99.90;;;;;;5093848;28;20406;-63
2023/01/03 02:34:49;;;;;;;8.52;5.45;;;5.40;99.90;;;;;;5093570;28;20406;-63
2023/01/03 02:37:21;;;;;;;7.07;4.90;;;5.30;99.90;;;;;;5093262;28;20801;-63
2023/01/03 02:39:55;;;;;;;10.32;5.80;;;5.30;99.90;;;;;;5093667;28;20480;-63
2023/01/03 02:45:19;;;;;;;6.35;5.00;;;5.30;99.90;;;;;;5093860;28;20461;-63
2023/01/03 02:47:52;;;;;;;9.40;5.38;;;5.40;99.90;;;;;;5093619;28;20414;-64
2023/01/03 02:50:23;;;;;;;7.00;5.10;;;5.40;99.90;;;;;;5092099;28;20497;-64
2023/01/03 02:52:53;;;;;;;9.25;4.95;;;5.40;99.90;;;;;;5093362;28;20901;-63
2023/01/03 02:55:52;;;;;;;8.55;4.80;;;5.40;99.90;;;;;;5095801;28;20874;-59
2023/01/03 02:58:23;;;;;;;9.95;5.43;;;5.40;99.90;;;;;;5031102;28;20399;-63
2023/01/03 03:00:54;;;;;;;9.30;4.70;;;5.40;99.90;;;;;;5081603;28;20426;-64
2023/01/03 03:03:26;;;;;;;9.07;4.60;;;5.40;99.90;;;;;;5093067;28;20471;-64
2023/01/03 03:05:59;;;;;;;7.17;4.77;;;5.40;99.90;;;;;;5093142;28;20413;-64
2023/01/03 03:08:26;;;;;;;7.60;4.75;;;5.40;99.90;;;;;;5093318;28;20425;-64
2023/01/03 03:13:41;;;;;;;5.80;4.05;;;5.40;99.90;;;;;;5093467;28;20401;-62
2023/01/03 03:16:16;;;;;;;11.80;4.70;;;5.40;99.90;;;;;;5093098;28;20817;-62
2023/01/03 03:18:58;;;;;;;9.68;4.40;;;5.50;99.90;;;;;;5093567;28;20766;-62
2023/01/03 03:28:33;;;;;;;5.30;3.70;;;5.80;99.90;;;;;;5078811;28;20390;-62
2023/01/03 03:29:47;;;;;;;5.47;4.15;;;5.80;99.90;;;;;;5095164;28;20425;-63
2023/01/03 03:32:14;;;;;;;5.68;4.15;;;5.80;99.90;;;;;;5095632;28;20886;-62
2023/01/03 03:34:44;;;;;;;10.93;5.28;;;5.80;99.90;;;;;;5094332;28;20782;-62
2023/01/03 03:37:15;;;;;;;6.90;4.67;;;5.80;99.90;;;;;;5094273;28;20926;-62
2023/01/03 03:45:27;;;;;;;8.13;4.53;;;5.70;99.90;;;;;;5095038;28;20455;-63
2023/01/03 03:48:01;;;;;;;11.02;5.10;;;5.70;99.90;;;;;;5095193;28;20412;-63
2023/01/03 03:50:32;;;;;;;7.07;4.40;;;5.70;99.90;;;;;;5095246;28;20418;-62
2023/01/03 03:53:04;;;;;;;9.25;5.38;;;5.70;99.90;;;;;;5094263;28;20919;-63
2023/01/03 03:55:36;;;;;;;9.15;5.45;;;5.70;99.90;;;;;;5093568;28;20442;-63
2023/01/03 03:58:06;;;;;;;8.60;5.10;;;5.70;99.90;;;;;;5093287;28;20422;-63
2023/01/03 04:00:37;;;;;;;10.98;5.85;;;5.70;99.90;;;;;;5092480;28;20405;-63
2023/01/03 04:03:06;;;;;;;10.00;5.50;;;5.60;99.90;;;;;;5093334;28;20414;-63
2023/01/03 04:05:38;;;;;;;8.30;6.28;;;5.60;99.90;;;;;;5093297;28;20416;-62
2023/01/03 04:11:04;;;;;;;8.05;5.88;;;5.50;99.90;;;;;;5111360;27;20342;-64
2023/01/03 04:13:31;;;;;;;9.50;6.20;;;5.50;99.90;;;;;;5110622;28;20425;-63
2023/01/03 04:15:57;;;;;;;10.43;6.22;;;5.50;99.90;;;;;;5110709;28;20500;-63
2023/01/03 04:18:24;;;;;;;9.10;6.20;;;5.50;99.90;;;;;;5110332;28;20416;-63
2023/01/03 04:20:51;;;;;;;14.25;6.85;;;5.50;99.90;;;;;;5110637;28;20887;-63
2023/01/03 04:23:21;;;;;;;11.60;7.07;;;5.50;99.90;;;;;;5111291;28;20409;-61
2023/01/03 04:25:48;;;;;;;9.73;7.15;;;5.40;99.90;;;;;;5109574;28;20893;-64
2023/01/03 04:28:17;;;;;;;9.13;6.53;;;5.40;99.90;;;;;;5109839;28;20414;-64
2023/01/03 04:30:44;;;;;;;10.57;6.70;;;5.40;99.90;;;;;;5109454;28;20761;-63
2023/01/03 04:33:11;;;;;;;11.35;7.18;;;5.40;99.90;;;;;;5109880;28;20409;-64
2023/01/03 04:35:38;;;;;;;11.93;7.93;;;5.30;99.90;;;;;;5109465;28;20408;-63
2023/01/03 04:38:05;;;;;;;11.32;7.28;;;5.30;99.90;;;;;;5109140;28;20907;-63
2023/01/03 04:40:33;;;;;;;11.60;7.00;;;5.20;99.90;;;;;;5109363;28;20411;-63
2023/01/03 04:45:48;;;;;;;12.00;7.70;;;5.20;99.90;;;;;;5109644;28;20458;-64
2023/01/03 04:48:15;;;;;;;15.25;7.90;;;5.20;99.90;;;;;;5109823;28;20398;-64
2023/01/03 04:50:42;;;;;;;12.38;7.60;;;5.10;99.90;;;;;;5109697;28;20424;-63
2023/01/03 04:53:09;;;;;;;10.60;8.27;;;5.10;99.90;;;;;;5109627;28;20405;-63
2023/01/03 04:55:35;;;;;;;10.48;6.95;;;5.10;99.90;;;;;;5109861;28;20419;-63
2023/01/03 04:58:02;;;;;;;10.70;7.47;;;5.20;99.90;;;;;;5109816;28;20761;-66
2023/01/03 05:00:29;;;;;;;9.88;7.55;;;5.30;99.90;;;;;;5109468;28;20410;-64
2023/01/03 05:02:57;;;;;;;11.05;7.50;;;5.40;99.90;;;;;;5109353;28;20436;-63
2023/01/03 05:05:24;;;;;;;12.48;7.32;;;5.50;99.90;;;;;;5109287;28;20415;-63
2023/01/03 05:07:50;;;;;;;11.13;8.00;;;5.50;99.90;;;;;;5109106;28;20751;-63
2023/01/03 05:10:17;;;;;;;10.10;7.63;;;5.60;99.90;;;;;;5124852;28;20443;-63
2023/01/03 05:12:58;;;;;;;10.65;8.10;;;5.60;99.90;;;;;;5130201;28;20416;-63
2023/01/03 05:15:25;;;;;;;9.55;7.47;;;5.60;99.90;;;;;;5130126;28;20422;-64
2023/01/03 05:17:52;;;;;;;9.55;7.90;;;5.60;99.90;;;;;;5129283;28;20883;-62
2023/01/03 05:26:06;;;;;;;12.52;8.90;;;5.80;99.90;;;;;;5053166;28;20397;-64
2023/01/03 05:28:33;;;;;;;12.15;9.02;;;5.80;99.90;;;;;;5052525;28;20618;-64
2023/01/03 05:31:01;;;;;;;10.13;8.00;;;5.90;99.90;;;;;;5081394;28;20420;-64
2023/01/03 05:33:28;;;;;;;13.50;7.55;;;6.00;99.90;;;;;;5116777;28;20747;-63
2023/01/03 05:35:57;;;;;;;11.48;8.30;;;6.00;99.90;;;;;;5122820;28;20510;-64
2023/01/03 05:38:23;;;;;;;11.23;8.27;;;6.00;99.90;;;;;;5122628;27;20423;-63
2023/01/03 05:40:51;;;;;;;12.23;7.97;;;6.10;99.90;;;;;;5122920;28;20421;-63
2023/01/03 05:43:17;;;;;;;9.98;7.90;;;6.10;99.90;;;;;;5122450;28;20843;-63
2023/01/03 05:45:50;;;;;;;11.15;7.72;;;6.20;99.90;;;;;;5115920;28;20412;-63
2023/01/03 05:48:17;;;;;;;12.80;8.35;;;6.20;99.90;;;;;;5116254;28;20432;-62
2023/01/03 05:50:45;;;;;;;12.40;8.20;;;6.20;99.90;;;;;;5116625;28;20793;-62
2023/01/03 05:53:13;;;;;;;12.02;8.20;;;6.20;99.90;;;;;;5115683;28;20415;-64
2023/01/03 05:55:40;;;;;;;10.07;7.28;;;6.30;99.90;;;;;;5115341;28;20409;-62
2023/01/03 05:58:07;;;;;;;10.75;8.00;;;6.30;99.90;;;;;;5115261;28;20887;-64
2023/01/03 06:00:34;;;;;;;11.52;8.23;;;6.30;99.90;;;;;;5114652;28;20913;-63
2023/01/03 06:03:01;;;;;;;9.20;8.13;;;6.30;99.90;;;;;;5114902;28;20412;-62
2023/01/03 06:05:28;;;;;;;12.02;9.15;;;6.30;99.90;;;;;;5114912;28;20419;-64
2023/01/03 06:07:55;;;;;;;14.48;9.55;;;6.30;99.90;;;;;;5114764;28;20404;-62
2023/01/03 06:10:23;;;;;;;11.98;8.95;;;6.20;99.90;;;;;;5115656;28;20426;-64
2023/01/03 06:12:50;;;;;;;13.25;9.60;;;6.20;99.90;;;;;;5115741;28;20511;-63
2023/01/03 06:15:16;;;;;;;14.68;10.50;;;6.30;99.90;;;;;;5115307;28;20880;-63
2023/01/03 06:17:56;;;;;;;12.13;9.80;;;6.30;99.90;;;;;;5116167;28;20502;-63
2023/01/03 06:20:24;;;;;;;14.15;10.63;;;6.20;99.90;;;;;;5116763;28;20396;-63
2023/01/03 06:22:51;;;;;;;15.73;11.35;;;6.10;99.90;;;;;;5116623;28;20415;-63
2023/01/03 06:25:18;;;;;;;16.20;10.80;;;6.10;99.90;;;;;;5116364;28;20420;-64
2023/01/03 06:27:46;;;;;;;15.95;11.20;;;6.10;99.90;;;;;;5116254;28;20408;-65
2023/01/03 06:30:14;;;;;;;19.02;12.57;;;6.00;99.90;;;;;;5115926;28;20420;-63
2023/01/03 06:32:41;;;;;;;19.52;12.98;;;6.00;99.90;;;;;;5114941;28;20453;-64
2023/01/03 06:35:09;;;;;;;18.33;13.25;;;5.90;99.90;;;;;;5115180;27;20413;-63
2023/01/03 06:37:35;;;;;;;17.92;13.40;;;5.90;99.90;;;;;;5114761;28;20419;-63
2023/01/03 06:40:02;;;;;;;15.77;12.93;;;5.80;99.90;;;;;;5114781;28;20426;-63
2023/01/03 06:42:42;;;;;;;20.50;14.90;;;5.80;99.90;;;;;;5114823;28;20490;-63
2023/01/03 06:53:32;;;;;;;18.55;14.15;;;5.80;99.90;;;;;;5114178;28;20439;-64
2023/01/03 06:55:59;;;;;;;21.80;15.68;;;5.80;99.90;;;;;;5113924;28;20419;-63
2023/01/03 06:58:27;;;;;;;23.27;16.17;;;5.80;99.90;;;;;;5113775;28;20454;-64
2023/01/03 07:00:56;;;;;;;22.83;16.17;;;5.70;99.90;;;;;;5113781;28;20528;-64
2023/01/03 07:03:24;;;;;;;22.38;17.27;;;5.70;99.90;;;;;;5113757;28;20412;-62
2023/01/03 07:05:51;;;;;;;23.58;16.40;;;5.70;99.90;;;;;;5113448;28;20413;-62
2023/01/03 07:08:18;;;;;;;24.55;17.52;;;5.60;99.90;;;;;;5113652;28;20412;-63
2023/01/03 07:10:45;;;;;;;24.17;17.77;;;5.50;99.90;;;;;;5113114;28;20515;-63
2023/01/03 07:15:57;;;;;;;27.60;18.60;;;5.40;99.90;;;;;;5113311;28;20406;-63
2023/01/03 07:18:25;;;;;;;24.52;18.02;;;5.40;99.90;;;;;;5113048;28;20880;-64
2023/01/03 07:20:52;;;;;;;26.08;18.35;;;5.50;99.90;;;;;;5113768;28;20408;-63
2023/01/03 07:23:19;;;;;;;26.45;18.10;;;5.50;99.90;;;;;;5113053;28;20418;-63
2023/01/03 07:25:46;;;;;;;22.98;17.73;;;5.60;99.90;;;;;;5113446;28;20427;-62
2023/01/03 07:28:14;;;;;;;25.55;18.30;;;5.70;99.90;;;;;;5113345;28;20838;-62
2023/01/03 07:30:43;;;;;;;25.27;17.40;;;5.70;99.90;;;;;;5113387;28;20450;-63
2023/01/03 07:33:13;;;;;;;23.63;17.38;;;5.80;99.90;;;;;;5112811;28;20412;-63
2023/01/03 07:35:40;;;;;;;22.63;18.25;;;5.90;99.90;;;;;;5113229;28;20412;-63
2023/01/03 07:38:08;;;;;;;21.40;16.70;;;5.90;99.90;;;;;;5113563;28;20415;-63
2023/01/03 07:40:35;;;;;;;23.92;18.58;;;5.90;99.90;;;;;;5113026;28;20404;-63
2023/01/03 07:45:46;;;;;;;23.37;16.60;;;6.00;99.90;;;;;;5112959;28;20497;-65
2023/01/03 07:48:15;;;;;;;22.40;16.45;;;6.00;99.90;;;;;;5113288;28;20404;-64
2023/01/03 07:50:42;;;;;;;24.45;17.40;;;6.00;99.90;;;;;;5112841;28;20428;-61
2023/01/03 07:53:15;;;;;;;26.08;17.15;;;6.00;99.90;;;;;;5113099;28;20412;-62
2023/01/03 07:55:42;;;;;;;23.42;17.08;;;5.90;99.90;;;;;;5113028;28;20833;-63
2023/01/03 07:58:09;;;;;;;22.27;17.20;;;5.90;99.90;;;;;;5113572;28;20438;-64
2023/01/03 08:00:36;;;;;;;21.83;16.70;;;5.90;99.90;;;;;;5112845;28;20852;-64
2023/01/03 08:03:03;;;;;;;20.80;16.13;;;5.80;99.90;;;;;;5113174;28;20408;-63
2023/01/03 08:05:32;;;;;;;23.40;16.33;;;5.80;99.90;;;;;;5112937;28;20775;-63
2023/01/03 08:07:59;;;;;;;21.10;17.07;;;5.70;99.90;;;;;;5113047;28;20415;-63
2023/01/03 08:13:19;;;;;;;22.25;15.70;;;5.70;99.90;;;;;;5112898;28;20392;-62
2023/01/03 08:15:50;;;;;;;21.48;16.35;;;5.60;99.90;;;;;;5112626;28;20415;-62
2023/01/03 08:18:20;;;;;;;22.08;17.23;;;5.60;99.90;;;;;;5113021;28;20435;-62
2023/01/03 08:20:48;;;;;;;22.40;16.23;;;5.60;99.90;;;;;;5112777;28;20756;-62
2023/01/03 08:23:15;;;;;;;23.23;17.08;;;5.60;99.90;;;;;;5112278;28;20856;-62
2023/01/03 08:25:42;;;;;;;23.50;16.83;;;5.60;99.90;;;;;;5113397;28;20426;-63
2023/01/03 08:28:10;;;;;;;19.70;15.55;;;5.60;99.90;;;;;;5114427;28;20414;-63
2023/01/03 08:30:41;;;;;;;20.95;16.05;;;5.60;99.90;;;;;;5113189;28;20420;-62
2023/01/03 08:33:10;;;;;;;24.30;18.10;;;5.60;99.90;;;;;;5112938;28;20435;-61
2023/01/03 08:35:40;;;;;;;22.00;16.20;;;5.70;99.90;;;;;;5114122;28;20412;-63
2023/01/03 08:38:12;;;;;;;22.08;16.50;;;5.70;99.90;;;;;;5112955;28;20507;-63
2023/01/03 08:40:41;;;;;;;19.37;15.60;;;5.70;99.90;;;;;;5112713;28;20400;-63
2023/01/03 08:43:08;;;;;;;22.10;17.33;;;5.70;99.90;;;;;;5112710;28;20404;-62
2023/01/03 08:45:37;;;;;;;22.08;16.02;;;5.70;99.90;;;;;;5112519;28;20431;-62
2023/01/03 08:48:05;;;;;;;22.58;17.60;;;5.80;99.90;;;;;;5112139;28;20404;-63
2023/01/03 08:50:32;;;;;;;19.17;15.30;;;5.80;99.90;;;;;;5112124;28;20470;-62
2023/01/03 08:52:59;;;;;;;23.20;16.45;;;5.80;99.90;;;;;;5112364;28;20489;-63
2023/01/03 08:55:27;;;;;;;22.83;16.42;;;5.80;99.90;;;;;;5112574;28;20904;-64
2023/01/03 08:57:54;;;;;;;20.75;16.30;;;5.90;99.90;;;;;;5116535;28;20415;-63
2023/01/03 09:00:21;;;;;;;19.02;16.20;;;5.90;99.90;;;;;;5117078;28;20400;-63
2023/01/03 09:02:48;;;;;;;22.45;15.88;;;5.90;99.90;;;;;;5116384;28;20494;-64
2023/01/03 09:05:15;;;;;;;19.52;15.57;;;6.00;99.90;;;;;;5116304;28;20883;-63
2023/01/03 09:07:42;;;;;;;20.05;16.15;;;6.00;99.90;;;;;;5116537;28;20469;-63
2023/01/03 09:10:10;;;;;;;20.83;15.70;;;6.10;99.90;;;;;;5116276;28;20412;-62
2023/01/03 09:12:38;;;;;;;21.35;15.68;;;6.10;99.90;;;;;;5116562;28;20430;-64
2023/01/03 09:15:06;;;;;;;19.08;15.20;;;6.20;99.90;;;;;;5116375;28;20408;-62
2023/01/03 09:17:33;;;;;;;21.40;15.75;;;6.20;99.90;;;;;;5116313;28;20440;-63
2023/01/03 09:19:59;;;;;;;19.40;15.82;;;6.20;99.90;;;;;;5117332;28;20405;-64
2023/01/03 09:22:26;;;;;;;21.25;15.80;;;6.30;99.90;;;;;;5117173;28;20408;-64
2023/01/03 09:24:54;;;;;;;23.00;15.07;;;6.30;99.90;;;;;;5118030;28;20407;-63
2023/01/03 09:27:21;;;;;;;21.10;16.27;;;6.40;99.90;;;;;;5118970;28;20489;-63
2023/01/03 09:29:49;;;;;;;23.15;17.02;;;6.40;99.90;;;;;;5116575;28;20416;-62
2023/01/03 09:32:16;;;;;;;20.52;16.45;;;6.50;99.90;;;;;;5116604;28;20424;-63
2023/01/03 09:34:42;;;;;;;21.85;16.25;;;6.50;99.90;;;;;;5117313;28;20420;-63
2023/01/03 09:37:09;;;;;;;21.10;16.27;;;6.50;99.90;;;;;;5117175;28;20416;-63
2023/01/03 09:39:39;;;;;;;19.52;16.00;;;6.60;99.90;;;;;;5116587;28;20416;-64
2023/01/03 09:44:53;;;;;;;22.65;16.75;;;6.70;99.90;;;;;;5116283;28;20453;-62
2023/01/03 09:47:24;;;;;;;20.08;15.30;;;6.70;99.90;;;;;;5115761;28;20465;-63
2023/01/03 09:49:52;;;;;;;21.63;16.00;;;6.70;99.90;;;;;;5116208;28;20431;-62
2023/01/03 10:04:04;;;;;;;19.75;13.93;;;7.00;99.90;;;;;;5116026;28;20439;-63
2023/01/03 10:06:56;;;;;;;19.00;15.18;;;7.00;99.90;;;;;;5116322;28;20419;-62
2023/01/03 10:09:32;;;;;;;19.45;14.32;;;7.10;99.90;;;;;;5124361;28;20425;-62
2023/01/03 10:12:08;;;;;;;20.50;14.40;;;7.10;99.90;;;;;;5119508;28;20447;-63
2023/01/03 10:14:50;;;;;;;17.60;13.60;;;7.10;99.90;;;;;;5124315;28;20431;-61
2023/01/03 10:17:26;;;;;;;19.05;14.82;;;7.20;99.90;;;;;;5119887;28;20408;-63
2023/01/03 10:20:29;;;;;;;16.92;13.85;;;7.20;99.90;;;;;;5117549;28;20499;-62
2023/01/03 10:22:57;;;;;;;16.15;13.00;;;7.20;99.90;;;;;;5072786;27;20929;-62
2023/01/03 10:25:24;;;;;;;16.58;13.52;;;7.30;99.90;;;;;;5072125;22;20892;-64
2023/01/03 10:27:55;;;;;;;18.33;13.80;;;7.40;99.90;;;;;;5034186;28;20414;-64
2023/01/03 10:30:36;;;;;;;16.10;13.13;;;7.40;99.90;;;;;;5034326;28;20430;-63
2023/01/03 10:33:28;;;;;;;14.00;12.20;;;7.40;99.90;;;;;;5033561;28;20879;-64
2023/01/03 10:35:55;;;;;;;17.70;12.63;;;7.40;99.90;;;;;;5014178;28;20424;-64
2023/01/03 10:38:24;;;;;;;16.25;12.80;;;7.50;99.90;;;;;;5017402;28;20417;-64
2023/01/03 10:40:53;;;;;;;14.13;11.95;;;7.50;99.90;;;;;;5017585;28;20416;-64
2023/01/03 10:43:28;;;;;;;16.20;11.52;;;7.50;99.90;;;;;;5014172;28;20904;-64
2023/01/03 10:45:57;;;;;;;16.20;11.98;;;7.60;99.90;;;;;;5014158;28;20461;-63
2023/01/03 10:48:33;;;;;;;14.77;11.95;;;7.60;99.90;;;;;;5013886;28;20416;-64
2023/01/03 10:51:00;;;;;;;14.70;12.23;;;7.70;99.90;;;;;;5014142;28;20519;-64
2023/01/03 10:53:28;;;;;;;14.38;12.00;;;7.80;99.90;;;;;;5013971;28;20423;-64
2023/01/03 10:55:57;;;;;;;16.08;12.02;;;7.80;99.90;;;;;;5013860;28;20892;-63
2023/01/03 10:58:26;;;;;;;15.25;11.60;;;7.80;99.90;;;;;;5017059;28;20598;-64
2023/01/03 11:00:54;;;;;;;13.98;10.90;;;7.90;99.90;;;;;;5015883;28;20893;-64
2023/01/03 11:03:23;;;;;;;12.82;10.75;;;7.90;99.90;;;;;;5014291;28;20420;-64
2023/01/03 11:06:09;;;;;;;12.90;10.95;;;7.90;99.90;;;;;;5013767;28;20413;-63
2023/01/03 11:08:43;;;;;;;11.17;9.90;;;8.00;99.90;;;;;;5014163;28;20785;-63
2023/01/03 11:11:27;;;;;;;15.10;10.80;;;8.10;99.90;;;;;;5012978;28;20424;-63
2023/01/03 11:14:21;;;;;;;13.82;10.25;;;8.10;99.90;;;;;;5013405;28;20436;-64
2023/01/03 11:16:54;;;;;;;14.80;11.60;;;8.10;99.90;;;;;;5013399;28;20941;-63
2023/01/03 11:19:21;;;;;;;14.97;12.13;;;8.20;99.90;;;;;;5013428;28;20423;-65
2023/01/03 11:21:54;;;;;;;12.43;11.00;;;8.30;99.90;;;;;;5013640;28;20422;-63
2023/01/03 11:24:35;;;;;;;14.03;11.33;;;8.30;99.90;;;;;;5013286;28;20494;-66
2023/01/03 11:27:12;;;;;;;14.68;10.30;;;8.30;99.90;;;;;;5013397;28;20416;-64
2023/01/03 11:30:02;;;;;;;13.38;9.70;;;8.30;99.90;;;;;;5014523;28;20415;-64
2023/01/03 11:32:45;;;;;;;11.80;8.97;;;8.40;99.90;;;;;;5013012;28;20428;-63
2023/01/03 11:35:33;;;;;;;9.50;8.10;;;8.40;99.90;;;;;;5012328;28;20984;-64
2023/01/03 11:38:16;;;;;;;11.40;8.35;;;8.50;99.90;;;;;;5013229;28;20420;-63
2023/01/03 11:40:48;;;;;;;10.40;8.48;;;8.50;99.90;;;;;;5012573;28;20436;-63
2023/01/03 11:43:26;;;;;;;9.38;7.68;;;8.50;99.90;;;;;;5013183;28;20789;-63
2023/01/03 11:46:09;;;;;;;9.07;7.00;;;8.50;99.90;;;;;;5013057;28;20457;-63
2023/01/03 11:48:56;;;;;;;9.13;7.15;;;8.50;99.90;;;;;;5012789;28;20788;-63
2023/01/03 11:51:30;;;;;;;10.43;6.95;;;8.50;99.90;;;;;;5012496;28;20916;-64
2023/01/03 11:54:04;;;;;;;8.32;6.28;;;8.50;99.90;;;;;;5013717;28;20431;-65
2023/01/03 11:56:36;;;;;;;9.05;6.13;;;8.60;99.90;;;;;;5013866;28;20432;-63
2023/01/03 11:59:29;;;;;;;6.80;5.30;;;8.60;99.90;;;;;;5013500;28;20420;-63
2023/01/03 12:02:30;;;;;;;8.50;5.75;;;8.60;99.90;;;;;;5014601;28;20432;-63
2023/01/03 12:05:11;;;;;;;9.48;6.22;;;8.60;99.90;;;;;;5019147;28;20423;-64
2023/01/03 12:07:48;;;;;;;6.72;5.40;;;8.60;99.90;;;;;;5017048;28;20413;-63
2023/01/03 12:10:22;;;;;;;8.18;5.63;;;8.70;99.90;;;;;;5015982;28;20417;-64
2023/01/03 12:13:05;;;;;;;6.50;5.10;;;8.70;99.90;;;;;;5015199;28;20432;-63
2023/01/03 12:15:42;;;;;;;7.30;5.10;;;8.70;99.90;;;;;;5014040;28;20420;-63
2023/01/03 12:18:18;;;;;;;7.95;5.30;;;8.70;99.90;;;;;;5013466;28;20431;-62
2023/01/03 12:20:51;;;;;;;6.40;5.30;;;8.70;99.90;;;;;;5014043;28;20737;-62
2023/01/03 12:23:28;;;;;;;8.35;5.50;;;8.70;99.90;;;;;;5013751;28;20432;-65
2023/01/03 12:25:58;;;;;;;6.30;5.27;;;8.80;99.90;;;;;;5013719;28;20420;-63
2023/01/03 12:28:32;;;;;;;7.20;5.00;;;8.80;99.90;;;;;;5014154;28;20436;-64
2023/01/03 12:31:01;;;;;;;6.53;4.90;;;8.90;99.90;;;;;;5016705;28;20507;-64
2023/01/03 12:33:33;;;;;;;6.05;4.78;;;8.90;99.90;;;;;;5021197;28;20427;-62
2023/01/03 12:36:04;;;;;;;5.88;4.53;;;8.90;99.90;;;;;;5021820;28;20853;-63
2023/01/03 12:38:35;;;;;;;7.07;4.40;;;9.00;99.90;;;;;;5022576;28;20488;-65
2023/01/03 12:41:13;;;;;;;7.60;4.80;;;9.00;99.90;;;;;;5022668;28;20428;-63
2023/01/03 12:43:46;;;;;;;7.27;4.83;;;9.10;99.90;;;;;;5019360;28;20450;-64
2023/01/03 12:46:18;;;;;;;6.88;4.85;;;9.10;99.90;;;;;;5016740;28;20424;-61
2023/01/03 12:48:56;;;;;;;6.75;4.70;;;9.10;99.90;;;;;;5015936;28;20455;-60
2023/01/03 12:51:24;;;;;;;7.57;4.50;;;9.20;99.90;;;;;;5016835;28;20439;-63
2023/01/03 12:54:03;;;;;;;8.00;5.63;;;9.30;99.90;;;;;;5017685;28;20416;-63
2023/01/03 12:56:50;;;;;;;6.93;4.80;;;9.40;99.90;;;;;;5017452;28;20452;-63
2023/01/03 12:59:34;;;;;;;8.98;4.80;;;9.50;99.90;;;;;;5017672;28;20466;-64
2023/01/03 13:02:16;;;;;;;7.65;4.35;;;9.60;99.90;;;;;;5016402;28;20471;-64
2023/01/03 13:04:44;;;;;;;5.53;3.67;;;9.70;99.30;;;;;;5017836;28;20438;-64
2023/01/03 13:07:15;;;;;;;5.10;3.78;;;9.60;98.50;;;;;;5015896;28;20427;-64
2023/01/03 13:09:48;;;;;;;5.75;3.80;;;9.60;98.20;;;;;;5016094;28;20416;-64
2023/01/03 13:12:22;;;;;;;5.38;3.90;;;9.60;98.30;;;;;;5015486;28;20432;-64
2023/01/03 13:14:54;;;;;;;6.33;3.90;;;9.50;98.10;;;;;;5015861;28;20421;-64
2023/01/03 13:17:24;;;;;;;6.72;3.70;;;9.50;98.50;;;;;;5016242;28;20417;-65
2023/01/03 13:19:56;;;;;;;5.50;3.70;;;9.60;99.20;;;;;;5015924;28;20420;-63
2023/01/03 13:22:35;;;;;;;5.27;3.90;;;9.60;98.80;;;;;;5017136;28;20784;-65
2023/01/03 13:25:31;;;;;;;5.25;3.63;;;9.70;97.90;;;;;;5015460;28;20424;-63
2023/01/03 13:28:03;;;;;;;6.22;3.78;;;9.70;97.90;;;;;;5015868;28;20424;-64
2023/01/03 13:30:31;;;;;;;5.78;3.80;;;9.70;98.20;;;;;;5015945;28;20427;-64
2023/01/03 13:33:15;;;;;;;3.50;3.10;;;9.60;98.70;;;;;;5015580;28;20432;-63
2023/01/03 13:35:57;;;;;;;4.38;3.40;;;9.50;98.40;;;;;;5015988;28;20416;-64
2023/01/03 13:38:28;;;;;;;6.38;3.53;;;9.30;98.40;;;;;;5015730;28;20429;-63
2023/01/03 13:40:58;;;;;;;6.00;3.10;;;9.20;98.70;;;;;;5015242;28;20462;-63
2023/01/03 13:43:32;;;;;;;5.97;3.33;;;9.20;99.30;;;;;;5014610;28;20416;-64
2023/01/03 13:46:18;;;;;;;6.37;3.40;;;9.20;99.90;;;;;;5015035;28;20858;-63
2023/01/03 13:48:55;;;;;;;5.60;3.28;;;9.20;99.90;;;;;;5014587;28;20424;-63
2023/01/03 13:51:47;;;;;;;7.72;4.10;;;9.30;99.90;;;;;;5015586;28;20412;-63
2023/01/03 13:55:07;;;;;;;6.43;4.83;;;9.30;99.90;;;;;;5021558;28;20420;-63
2023/01/03 13:57:52;;;;;;;5.82;3.22;;;9.40;99.90;;;;;;5021093;28;20412;-63
2023/01/03 14:00:22;;;;;;;5.97;2.50;;;9.40;99.90;;;;;;5016803;28;20416;-62
2023/01/03 14:03:26;;;;;;;5.88;2.60;;;9.40;99.90;;;;;;5015646;28;20424;-63
2023/01/03 14:06:39;;;;;;;4.35;2.63;;;9.40;99.90;;;;;;5015140;28;20412;-63
2023/01/03 14:09:29;;;;;;;7.10;2.40;;;9.40;99.90;;;;;;5015064;28;20416;-63
2023/01/03 14:12:23;;;;;;;3.92;2.70;;;9.30;99.90;;;;;;5015125;28;20433;-65
2023/01/03 14:14:54;;;;;;;3.78;2.33;;;9.30;99.90;;;;;;5014799;28;20416;-64
2023/01/03 14:17:27;;;;;;;2.90;2.00;;;9.30;99.90;;;;;;5015869;28;20420;-63